createdAt,value
2023-03-19T00:00:51.196Z,13.87
2023-03-19T00:01:51.289Z,13.77
2023-03-19T00:02:51.351Z,13.87
2023-03-19T00:03:51.270Z,13.87
2023-03-19T00:04:51.201Z,13.67
2023-03-19T00:05:51.199Z,13.87
2023-03-19T00:06:51.194Z,13.77
2023-03-19T00:07:51.205Z,13.87
2023-03-19T00:08:51.215Z,13.87
2023-03-19T00:09:51.220Z,13.67
2023-03-19T00:10:51.187Z,13.77
2023-03-19T00:11:51.197Z,13.77
2023-03-19T00:12:51.193Z,13.87
2023-03-19T00:13:51.197Z,13.87
2023-03-19T00:14:51.189Z,13.77
2023-03-19T00:15:51.203Z,13.77
2023-03-19T00:16:51.218Z,14.06
2023-03-19T00:17:51.197Z,13.77
2023-03-19T00:18:51.189Z,13.77
2023-03-19T00:19:51.196Z,13.77
2023-03-19T00:20:51.202Z,13.87
2023-03-19T00:21:51.201Z,13.77
2023-03-19T00:22:51.203Z,13.87
2023-03-19T00:23:51.193Z,13.96
2023-03-19T00:24:51.186Z,13.77
2023-03-19T00:25:51.215Z,13.96
2023-03-19T00:26:51.189Z,13.96
2023-03-19T00:27:51.192Z,13.77
2023-03-19T00:28:51.185Z,13.87
2023-03-19T00:29:51.192Z,13.96
2023-03-19T00:30:51.264Z,13.77
2023-03-19T00:31:51.191Z,13.87
2023-03-19T00:32:51.203Z,13.77
2023-03-19T00:33:51.190Z,13.96
2023-03-19T00:34:51.188Z,13.87
2023-03-19T00:35:51.231Z,13.77
2023-03-19T00:36:51.183Z,13.87
2023-03-19T00:37:51.194Z,13.77
2023-03-19T00:38:51.182Z,13.87
2023-03-19T00:39:51.189Z,13.87
2023-03-19T00:40:51.197Z,13.96
2023-03-19T00:41:51.207Z,13.87
2023-03-19T00:42:51.184Z,13.77
2023-03-19T00:43:51.184Z,13.96
2023-03-19T00:44:51.190Z,13.77
2023-03-19T00:45:51.232Z,14.06
2023-03-19T00:46:51.177Z,13.87
2023-03-19T00:47:51.190Z,13.96
2023-03-19T00:48:51.174Z,14.06
2023-03-19T00:49:51.182Z,13.77
2023-03-19T00:50:51.181Z,13.77
2023-03-19T00:51:51.184Z,13.87
2023-03-19T00:52:51.174Z,13.77
2023-03-19T00:53:51.182Z,13.87
2023-03-19T00:54:51.172Z,13.77
2023-03-19T00:55:51.328Z,13.96
2023-03-19T00:56:51.177Z,13.96
2023-03-19T00:57:51.211Z,13.96
2023-03-19T00:58:51.177Z,13.96
2023-03-19T00:59:51.181Z,14.06
2023-03-19T01:00:51.170Z,13.96
2023-03-19T01:01:51.182Z,13.96
2023-03-19T01:02:51.166Z,13.96
2023-03-19T01:03:51.173Z,13.96
2023-03-19T01:04:51.163Z,13.77
2023-03-19T01:05:51.169Z,13.96
2023-03-19T01:06:51.163Z,14.06
2023-03-19T01:07:51.170Z,13.96
2023-03-19T01:08:51.162Z,13.77
2023-03-19T01:09:51.169Z,13.96
2023-03-19T01:10:51.161Z,13.77
2023-03-19T01:11:51.165Z,14.06
2023-03-19T01:12:51.159Z,13.96
2023-03-19T01:13:51.190Z,13.96
2023-03-19T01:14:51.171Z,13.96
2023-03-19T01:15:51.166Z,13.77
2023-03-19T01:16:51.167Z,13.77
2023-03-19T01:17:51.170Z,13.87
2023-03-19T01:18:51.155Z,13.87
2023-03-19T01:19:51.166Z,13.67
2023-03-19T01:20:51.155Z,13.77
2023-03-19T01:21:51.169Z,13.77
2023-03-19T01:22:51.170Z,13.77
2023-03-19T01:23:51.161Z,13.96
2023-03-19T01:24:51.153Z,13.77
2023-03-19T01:25:51.159Z,13.77
2023-03-19T01:26:51.152Z,13.77
2023-03-19T01:27:51.160Z,13.77
2023-03-19T01:28:51.148Z,13.96
2023-03-19T01:29:51.198Z,13.96
2023-03-19T01:30:51.201Z,13.96
2023-03-19T01:31:51.163Z,13.77
2023-03-19T01:32:51.195Z,13.96
2023-03-19T01:33:51.156Z,14.06
2023-03-19T01:34:51.146Z,14.06
2023-03-19T01:35:51.180Z,13.87
2023-03-19T01:36:51.145Z,13.87
2023-03-19T01:37:51.152Z,13.96
2023-03-19T01:38:51.143Z,13.96
2023-03-19T01:39:51.151Z,13.87
2023-03-19T01:40:51.143Z,14.06
2023-03-19T01:41:51.149Z,13.96
2023-03-19T01:42:51.146Z,13.87
2023-03-19T01:43:51.155Z,13.87
2023-03-19T01:44:51.142Z,13.96
2023-03-19T01:45:51.585Z,13.87
2023-03-19T01:46:51.237Z,13.87
2023-03-19T01:47:51.149Z,13.96
2023-03-19T01:48:51.203Z,13.96
2023-03-19T01:49:51.146Z,13.96
2023-03-19T01:50:51.152Z,13.87
2023-03-19T01:51:51.148Z,13.96
2023-03-19T01:52:51.139Z,13.87
2023-03-19T01:53:51.148Z,13.96
2023-03-19T01:54:51.148Z,13.96
2023-03-19T01:55:51.145Z,13.96
2023-03-19T01:56:51.141Z,13.87
2023-03-19T01:57:51.152Z,13.96
2023-03-19T01:58:51.137Z,13.96
2023-03-19T01:59:51.141Z,13.87
2023-03-19T02:00:51.138Z,13.96
2023-03-19T02:01:51.278Z,13.77
2023-03-19T02:02:51.139Z,13.87
2023-03-19T02:03:51.154Z,13.96
2023-03-19T02:04:51.161Z,13.96
2023-03-19T02:05:51.134Z,13.77
2023-03-19T02:06:51.141Z,13.96
2023-03-19T02:07:51.129Z,13.87
2023-03-19T02:08:51.137Z,13.87
2023-03-19T02:09:51.132Z,13.77
2023-03-19T02:10:51.136Z,13.96
2023-03-19T02:11:51.128Z,13.96
2023-03-19T02:12:51.201Z,13.96
2023-03-19T02:13:51.127Z,13.96
2023-03-19T02:14:51.133Z,13.77
2023-03-19T02:15:51.211Z,13.77
2023-03-19T02:16:51.132Z,13.77
2023-03-19T02:17:51.276Z,13.96
2023-03-19T02:18:51.137Z,13.77
2023-03-19T02:19:51.125Z,13.96
2023-03-19T02:20:51.137Z,13.96
2023-03-19T02:21:51.130Z,13.96
2023-03-19T02:22:51.132Z,13.96
2023-03-19T02:23:51.124Z,13.87
2023-03-19T02:24:51.127Z,13.87
2023-03-19T02:25:51.121Z,13.87
2023-03-19T02:26:51.126Z,13.96
2023-03-19T02:27:51.120Z,13.96
2023-03-19T02:28:51.137Z,13.87
2023-03-19T02:29:51.117Z,13.87
2023-03-19T02:30:51.123Z,13.96
2023-03-19T02:31:51.122Z,13.87
2023-03-19T02:32:51.175Z,13.87
2023-03-19T02:33:51.144Z,13.96
2023-03-19T02:34:51.123Z,13.96
2023-03-19T02:35:51.136Z,13.77
2023-03-19T02:36:51.121Z,13.96
2023-03-19T02:37:51.113Z,13.87
2023-03-19T02:38:51.121Z,13.87
2023-03-19T02:39:51.112Z,13.87
2023-03-19T02:40:51.117Z,13.96
2023-03-19T02:41:51.112Z,13.96
2023-03-19T02:42:51.120Z,13.96
2023-03-19T02:43:51.109Z,13.96
2023-03-19T02:44:51.120Z,13.87
2023-03-19T02:45:51.109Z,13.96
2023-03-19T02:46:51.161Z,13.77
2023-03-19T02:47:51.109Z,13.96
2023-03-19T02:48:51.114Z,13.96
2023-03-19T02:49:51.153Z,13.77
2023-03-19T02:50:51.114Z,13.77
2023-03-19T02:51:51.107Z,13.87
2023-03-19T02:52:51.110Z,14.06
2023-03-19T02:53:51.105Z,13.96
2023-03-19T02:54:51.109Z,13.96
2023-03-19T02:55:51.101Z,13.87
2023-03-19T02:56:51.108Z,13.96
2023-03-19T02:57:51.099Z,13.87
2023-03-19T02:58:51.107Z,13.87
2023-03-19T02:59:51.102Z,13.87
2023-03-19T03:00:51.189Z,13.87
2023-03-19T03:01:51.261Z,13.96
2023-03-19T03:02:51.110Z,13.87
2023-03-19T03:03:51.103Z,13.96
2023-03-19T03:04:51.109Z,13.87
2023-03-19T03:05:51.138Z,13.87
2023-03-19T03:06:51.111Z,13.87
2023-03-19T03:07:51.102Z,13.87
2023-03-19T03:08:51.111Z,14.06
2023-03-19T03:09:51.103Z,13.87
2023-03-19T03:10:51.121Z,14.06
2023-03-19T03:11:51.140Z,14.06
2023-03-19T03:12:51.110Z,13.87
2023-03-19T03:13:51.103Z,14.06
2023-03-19T03:14:51.114Z,13.87
2023-03-19T03:15:51.103Z,13.96
2023-03-19T03:16:51.109Z,13.87
2023-03-19T03:17:51.106Z,13.96
2023-03-19T03:18:51.108Z,13.96
2023-03-19T03:19:51.100Z,13.96
2023-03-19T03:20:51.107Z,13.77
2023-03-19T03:21:51.128Z,14.06
2023-03-19T03:22:51.112Z,13.96
2023-03-19T03:23:51.101Z,13.96
2023-03-19T03:24:51.108Z,13.77
2023-03-19T03:25:51.098Z,13.77
2023-03-19T03:26:51.112Z,13.77
2023-03-19T03:27:51.103Z,13.96
2023-03-19T03:28:51.104Z,13.96
2023-03-19T03:29:51.097Z,13.77
2023-03-19T03:30:51.106Z,13.77
2023-03-19T03:31:51.171Z,13.96
2023-03-19T03:32:51.174Z,13.77
2023-03-19T03:33:51.095Z,13.87
2023-03-19T03:34:51.103Z,13.77
2023-03-19T03:35:51.167Z,13.77
2023-03-19T03:36:51.102Z,13.96
2023-03-19T03:37:51.119Z,13.96
2023-03-19T03:38:51.113Z,13.96
2023-03-19T03:39:51.099Z,13.96
2023-03-19T03:40:51.099Z,13.87
2023-03-19T03:41:51.148Z,13.87
2023-03-19T03:42:51.101Z,14.06
2023-03-19T03:43:51.097Z,13.96
2023-03-19T03:44:51.098Z,13.96
2023-03-19T03:45:51.124Z,13.96
2023-03-19T03:46:51.101Z,13.96
2023-03-19T03:47:51.092Z,13.87
2023-03-19T03:48:51.096Z,13.87
2023-03-19T03:49:51.090Z,13.87
2023-03-19T03:50:51.096Z,13.87
2023-03-19T03:51:51.089Z,13.96
2023-03-19T03:52:51.093Z,13.96
2023-03-19T03:53:51.125Z,13.96
2023-03-19T03:54:51.095Z,13.87
2023-03-19T03:55:51.089Z,13.87
2023-03-19T03:56:51.093Z,13.87
2023-03-19T03:57:51.095Z,13.87
2023-03-19T03:58:51.096Z,13.96
2023-03-19T03:59:51.085Z,13.87
2023-03-19T04:00:51.091Z,14.06
2023-03-19T04:01:51.105Z,14.06
2023-03-19T04:02:51.146Z,13.96
2023-03-19T04:03:51.084Z,13.87
2023-03-19T04:04:51.089Z,14.06
2023-03-19T04:05:51.089Z,13.67
2023-03-19T04:06:51.105Z,13.87
2023-03-19T04:07:51.084Z,13.96
2023-03-19T04:08:51.098Z,13.96
2023-03-19T04:09:51.100Z,13.96
2023-03-19T04:10:51.086Z,14.06
2023-03-19T04:11:51.669Z,13.87
2023-03-19T04:12:51.098Z,13.96
2023-03-19T04:13:51.078Z,13.96
2023-03-19T04:14:51.085Z,14.06
2023-03-19T04:15:51.078Z,13.96
2023-03-19T04:16:51.191Z,13.96
2023-03-19T04:17:52.313Z,13.96
2023-03-19T04:18:51.084Z,13.96
2023-03-19T04:19:51.081Z,13.87
2023-03-19T04:20:51.086Z,13.87
2023-03-19T04:21:51.078Z,13.96
2023-03-19T04:22:51.081Z,13.87
2023-03-19T04:23:51.075Z,13.96
2023-03-19T04:24:51.080Z,13.96
2023-03-19T04:25:51.094Z,14.06
2023-03-19T04:26:51.080Z,13.87
2023-03-19T04:27:51.073Z,13.87
2023-03-19T04:28:51.078Z,13.87
2023-03-19T04:29:51.087Z,13.96
2023-03-19T04:30:51.100Z,13.87
2023-03-19T04:31:51.072Z,13.77
2023-03-19T04:32:51.094Z,13.96
2023-03-19T04:33:51.068Z,14.06
2023-03-19T04:34:51.078Z,13.77
2023-03-19T04:35:51.125Z,13.96
2023-03-19T04:36:51.093Z,14.06
2023-03-19T04:37:51.068Z,13.96
2023-03-19T04:38:51.074Z,13.96
2023-03-19T04:39:51.066Z,13.77
2023-03-19T04:40:51.073Z,14.06
2023-03-19T04:41:51.086Z,13.96
2023-03-19T04:42:51.076Z,13.96
2023-03-19T04:43:51.062Z,13.96
2023-03-19T04:44:51.067Z,13.96
2023-03-19T04:45:51.123Z,13.87
2023-03-19T04:46:51.067Z,13.96
2023-03-19T04:47:51.061Z,14.06
2023-03-19T04:48:51.065Z,13.87
2023-03-19T04:49:51.057Z,13.96
2023-03-19T04:50:51.064Z,13.87
2023-03-19T04:51:51.058Z,13.87
2023-03-19T04:52:51.084Z,13.87
2023-03-19T04:53:51.055Z,13.87
2023-03-19T04:54:51.062Z,13.87
2023-03-19T04:55:51.058Z,14.06
2023-03-19T04:56:51.061Z,13.87
2023-03-19T04:57:51.077Z,13.96
2023-03-19T04:58:51.064Z,13.87
2023-03-19T04:59:51.067Z,14.06
2023-03-19T05:00:51.066Z,13.87
2023-03-19T05:01:51.055Z,14.06
2023-03-19T05:02:51.062Z,13.87
2023-03-19T05:03:51.106Z,13.87
2023-03-19T05:04:51.057Z,14.06
2023-03-19T05:05:51.050Z,13.87
2023-03-19T05:06:51.059Z,13.87
2023-03-19T05:07:51.068Z,13.87
2023-03-19T05:08:51.057Z,13.87
2023-03-19T05:09:51.053Z,14.06
2023-03-19T05:10:51.069Z,14.06
2023-03-19T05:11:51.050Z,13.77
2023-03-19T05:12:51.062Z,14.06
2023-03-19T05:13:51.079Z,13.77
2023-03-19T05:14:51.062Z,13.77
2023-03-19T05:15:51.094Z,13.87
2023-03-19T05:16:51.052Z,13.87
2023-03-19T05:17:51.050Z,13.77
2023-03-19T05:18:51.055Z,13.77
2023-03-19T05:19:51.045Z,13.77
2023-03-19T05:20:51.054Z,13.77
2023-03-19T05:21:51.046Z,13.77
2023-03-19T05:22:51.051Z,13.67
2023-03-19T05:23:51.057Z,13.96
2023-03-19T05:24:51.049Z,13.87
2023-03-19T05:25:51.043Z,13.87
2023-03-19T05:26:51.049Z,13.77
2023-03-19T05:27:51.054Z,13.87
2023-03-19T05:28:51.059Z,13.67
2023-03-19T05:29:51.064Z,13.77
2023-03-19T05:30:51.068Z,13.87
2023-03-19T05:31:51.041Z,13.77
2023-03-19T05:32:51.068Z,13.96
2023-03-19T05:33:51.044Z,13.87
2023-03-19T05:34:51.047Z,13.87
2023-03-19T05:35:51.128Z,13.87
2023-03-19T05:36:51.042Z,13.87
2023-03-19T05:37:51.038Z,13.87
2023-03-19T05:38:51.044Z,13.96
2023-03-19T05:39:51.036Z,13.87
2023-03-19T05:40:51.042Z,13.87
2023-03-19T05:41:51.035Z,13.87
2023-03-19T05:42:51.053Z,13.87
2023-03-19T05:43:51.033Z,13.87
2023-03-19T05:44:51.040Z,13.87
2023-03-19T05:45:51.057Z,13.96
2023-03-19T05:46:51.048Z,13.96
2023-03-19T05:47:51.034Z,13.87
2023-03-19T05:48:51.043Z,13.87
2023-03-19T05:49:51.041Z,13.87
2023-03-19T05:50:51.036Z,13.77
2023-03-19T05:51:51.030Z,13.87
2023-03-19T05:52:51.037Z,13.87
2023-03-19T05:53:51.028Z,13.67
2023-03-19T05:54:51.037Z,13.87
2023-03-19T05:55:51.027Z,13.87
2023-03-19T05:56:51.032Z,13.67
2023-03-19T05:57:51.029Z,13.87
2023-03-19T05:58:51.042Z,13.87
2023-03-19T05:59:51.025Z,13.77
2023-03-19T06:00:51.034Z,13.87
2023-03-19T06:01:51.119Z,13.87
2023-03-19T06:02:51.062Z,13.96
2023-03-19T06:03:51.044Z,14.16
2023-03-19T06:04:51.029Z,14.16
2023-03-19T06:05:51.032Z,14.25
2023-03-19T06:06:51.026Z,14.06
2023-03-19T06:07:51.022Z,14.25
2023-03-19T06:08:51.025Z,14.25
2023-03-19T06:09:51.018Z,13.96
2023-03-19T06:10:51.024Z,13.96
2023-03-19T06:11:51.017Z,14.06
2023-03-19T06:12:51.021Z,14.16
2023-03-19T06:13:51.022Z,13.96
2023-03-19T06:14:51.022Z,13.96
2023-03-19T06:15:51.023Z,13.96
2023-03-19T06:16:51.017Z,13.96
2023-03-19T06:17:51.049Z,14.25
2023-03-19T06:18:51.011Z,14.34
2023-03-19T06:19:51.020Z,14.35
2023-03-19T06:20:51.009Z,14.16
2023-03-19T06:21:51.018Z,14.35
2023-03-19T06:22:51.010Z,14.44
2023-03-19T06:23:51.018Z,14.15
2023-03-19T06:24:51.015Z,14.06
2023-03-19T06:25:51.015Z,14.15
2023-03-19T06:26:51.009Z,14.16
2023-03-19T06:27:51.011Z,14.16
2023-03-19T06:28:51.006Z,14.16
2023-03-19T06:29:51.012Z,14.16
2023-03-19T06:30:51.004Z,14.06
2023-03-19T06:31:51.091Z,14.06
2023-03-19T06:32:51.021Z,14.06
2023-03-19T06:33:51.033Z,14.06
2023-03-19T06:34:51.004Z,14.15
2023-03-19T06:35:51.090Z,14.06
2023-03-19T06:36:51.002Z,14.06
2023-03-19T06:37:51.011Z,14.06
2023-03-19T06:38:51.001Z,14.16
2023-03-19T06:39:51.046Z,14.06
2023-03-19T06:40:51.014Z,14.06
2023-03-19T06:41:51.009Z,14.06
2023-03-19T06:42:51.005Z,14.06
2023-03-19T06:43:51.009Z,14.16
2023-03-19T06:44:53.453Z,14.06
2023-03-19T06:45:51.074Z,14.16
2023-03-19T06:46:51.000Z,14.06
2023-03-19T06:47:53.397Z,14.16
2023-03-19T06:48:50.999Z,14.06
2023-03-19T06:49:51.026Z,14.25
2023-03-19T06:50:51.006Z,14.16
2023-03-19T06:51:51.010Z,14.15
2023-03-19T06:52:51.000Z,14.15
2023-03-19T06:53:51.016Z,14.25
2023-03-19T06:54:50.996Z,14.06
2023-03-19T06:55:51.006Z,14.06
2023-03-19T06:56:50.997Z,14.15
2023-03-19T06:57:51.006Z,14.06
2023-03-19T06:58:50.994Z,14.15
2023-03-19T06:59:51.004Z,14.25
2023-03-19T07:00:51.022Z,14.16
2023-03-19T07:01:50.999Z,14.06
2023-03-19T07:02:50.990Z,14.06
2023-03-19T07:03:51.077Z,14.06
2023-03-19T07:04:50.991Z,14.16
2023-03-19T07:05:51.020Z,14.15
2023-03-19T07:06:50.988Z,14.06
2023-03-19T07:07:51.052Z,14.06
2023-03-19T07:08:50.988Z,14.06
2023-03-19T07:09:50.992Z,14.16
2023-03-19T07:10:50.982Z,14.06
2023-03-19T07:11:50.994Z,14.25
2023-03-19T07:12:50.981Z,14.25
2023-03-19T07:13:50.993Z,14.06
2023-03-19T07:14:50.989Z,14.06
2023-03-19T07:15:51.020Z,14.06
2023-03-19T07:16:51.043Z,14.06
2023-03-19T07:17:51.006Z,14.06
2023-03-19T07:18:50.978Z,14.06
2023-03-19T07:19:50.987Z,14.15
2023-03-19T07:20:50.980Z,14.06
2023-03-19T07:21:51.011Z,14.06
2023-03-19T07:22:51.016Z,14.06
2023-03-19T07:23:51.008Z,14.25
2023-03-19T07:24:50.973Z,14.06
2023-03-19T07:25:50.982Z,14.06
2023-03-19T07:26:50.975Z,14.06
2023-03-19T07:27:50.982Z,14.25
2023-03-19T07:28:50.974Z,14.25
2023-03-19T07:29:50.984Z,14.06
2023-03-19T07:30:50.971Z,14.06
2023-03-19T07:31:51.058Z,14.25
2023-03-19T07:32:51.030Z,14.16
2023-03-19T07:33:50.975Z,14.25
2023-03-19T07:34:50.977Z,14.16
2023-03-19T07:35:51.042Z,14.16
2023-03-19T07:36:50.979Z,14.16
2023-03-19T07:37:50.997Z,14.25
2023-03-19T07:38:50.967Z,14.25
2023-03-19T07:39:50.980Z,14.25
2023-03-19T07:41:01.517Z,14.25
2023-03-19T07:41:50.977Z,14.16
2023-03-19T07:42:50.964Z,14.25
2023-03-19T07:43:50.970Z,14.25
2023-03-19T07:44:50.962Z,14.25
2023-03-19T07:45:51.004Z,14.25
2023-03-19T07:46:50.986Z,14.25
2023-03-19T07:47:50.968Z,14.25
2023-03-19T07:48:50.958Z,14.25
2023-03-19T07:49:50.966Z,14.15
2023-03-19T07:50:50.957Z,14.25
2023-03-19T07:51:50.965Z,14.16
2023-03-19T07:52:50.955Z,14.25
2023-03-19T07:53:51.009Z,14.25
2023-03-19T07:54:50.984Z,14.16
2023-03-19T07:55:50.961Z,14.25
2023-03-19T07:56:50.951Z,14.25
2023-03-19T07:57:50.959Z,14.16
2023-03-19T07:58:50.953Z,14.25
2023-03-19T07:59:50.970Z,14.16
2023-03-19T08:00:50.952Z,14.16
2023-03-19T08:01:50.959Z,14.16
2023-03-19T08:02:51.007Z,14.15
2023-03-19T08:03:50.959Z,14.16
2023-03-19T08:04:51.109Z,14.25
2023-03-19T08:05:50.954Z,14.16
2023-03-19T08:06:50.953Z,14.16
2023-03-19T08:07:50.955Z,14.16
2023-03-19T08:08:50.955Z,14.16
2023-03-19T08:09:50.978Z,14.16
2023-03-19T08:10:51.033Z,14.16
2023-03-19T08:11:50.952Z,14.25
2023-03-19T08:12:50.944Z,14.16
2023-03-19T08:13:50.955Z,14.06
2023-03-19T08:14:50.949Z,14.06
2023-03-19T08:15:51.060Z,14.25
2023-03-19T08:16:51.062Z,14.16
2023-03-19T08:17:50.949Z,14.16
2023-03-19T08:18:52.425Z,14.06
2023-03-19T08:19:50.953Z,14.25
2023-03-19T08:20:50.947Z,14.06
2023-03-19T08:21:50.952Z,14.16
2023-03-19T08:22:50.942Z,14.25
2023-03-19T08:23:50.956Z,14.16
2023-03-19T08:24:50.937Z,14.25
2023-03-19T08:25:50.969Z,14.25
2023-03-19T08:26:51.013Z,14.06
2023-03-19T08:27:50.943Z,14.25
2023-03-19T08:28:50.955Z,14.06
2023-03-19T08:29:50.957Z,14.06
2023-03-19T08:30:51.013Z,14.16
2023-03-19T08:31:50.967Z,14.16
2023-03-19T08:32:51.067Z,14.16
2023-03-19T08:33:50.961Z,14.16
2023-03-19T08:34:50.932Z,14.16
2023-03-19T08:35:50.982Z,14.16
2023-03-19T08:36:50.953Z,14.16
2023-03-19T08:37:50.967Z,14.06
2023-03-19T08:38:50.972Z,14.16
2023-03-19T08:39:50.990Z,14.06
2023-03-19T08:40:50.973Z,14.06
2023-03-19T08:41:51.355Z,14.16
2023-03-19T08:42:51.013Z,14.16
2023-03-19T08:43:50.979Z,14.16
2023-03-19T08:44:51.010Z,14.06
2023-03-19T08:45:50.945Z,14.06
2023-03-19T08:46:51.011Z,14.06
2023-03-19T08:47:50.942Z,14.06
2023-03-19T08:48:50.927Z,14.06
2023-03-19T08:49:51.017Z,14.06
2023-03-19T08:50:50.924Z,14.06
2023-03-19T08:51:50.931Z,14.06
2023-03-19T08:52:50.925Z,14.06
2023-03-19T08:53:50.930Z,14.06
2023-03-19T08:54:50.923Z,14.06
2023-03-19T08:55:50.930Z,14.06
2023-03-19T08:56:50.921Z,14.06
2023-03-19T08:57:51.000Z,13.96
2023-03-19T08:58:50.918Z,14.06
2023-03-19T08:59:51.081Z,14.16
2023-03-19T09:00:50.918Z,14.06
2023-03-19T09:01:51.011Z,14.06
2023-03-19T09:02:50.918Z,13.96
2023-03-19T09:03:50.936Z,14.06
2023-03-19T09:04:50.973Z,14.06
2023-03-19T09:05:50.922Z,13.96
2023-03-19T09:06:50.915Z,14.06
2023-03-19T09:07:50.949Z,14.06
2023-03-19T09:08:50.915Z,14.06
2023-03-19T09:09:50.924Z,13.96
2023-03-19T09:10:51.573Z,14.06
2023-03-19T09:11:50.919Z,14.06
2023-03-19T09:12:50.911Z,13.96
2023-03-19T09:13:50.944Z,13.96
2023-03-19T09:14:50.915Z,14.06
2023-03-19T09:15:50.936Z,14.06
2023-03-19T09:16:50.920Z,14.06
2023-03-19T09:17:50.919Z,14.16
2023-03-19T09:18:50.909Z,13.96
2023-03-19T09:19:50.918Z,14.06
2023-03-19T09:20:50.906Z,14.16
2023-03-19T09:21:50.977Z,13.96
2023-03-19T09:22:50.911Z,14.06
2023-03-19T09:23:50.953Z,14.06
2023-03-19T09:24:50.919Z,13.96
2023-03-19T09:25:50.968Z,14.06
2023-03-19T09:26:50.909Z,14.06
2023-03-19T09:27:50.916Z,14.06
2023-03-19T09:28:50.903Z,14.06
2023-03-19T09:29:50.934Z,14.06
2023-03-19T09:30:50.959Z,14.06
2023-03-19T09:31:50.924Z,14.06
2023-03-19T09:32:50.935Z,14.54
2023-03-19T09:33:50.912Z,14.06
2023-03-19T09:34:50.925Z,14.06
2023-03-19T09:35:51.067Z,14.06
2023-03-19T09:36:50.898Z,13.96
2023-03-19T09:37:52.074Z,14.06
2023-03-19T09:38:50.902Z,14.06
2023-03-19T09:39:50.905Z,13.96
2023-03-19T09:40:50.896Z,14.06
2023-03-19T09:41:50.906Z,13.96
2023-03-19T09:42:50.896Z,14.45
2023-03-19T09:43:50.903Z,14.35
2023-03-19T09:44:50.894Z,14.06
2023-03-19T09:45:50.926Z,14.54
2023-03-19T09:46:50.911Z,14.06
2023-03-19T09:47:50.903Z,14.06
2023-03-19T09:48:50.895Z,13.96
2023-03-19T09:49:50.919Z,14.35
2023-03-19T09:50:50.902Z,14.45
2023-03-19T09:51:50.904Z,14.35
2023-03-19T09:52:50.899Z,13.96
2023-03-19T09:53:50.900Z,14.35
2023-03-19T09:54:50.893Z,14.45
2023-03-19T09:55:50.903Z,14.25
2023-03-19T09:56:50.891Z,14.35
2023-03-19T09:57:50.898Z,14.35
2023-03-19T09:58:50.892Z,14.45
2023-03-19T09:59:50.898Z,14.35
2023-03-19T10:00:50.890Z,14.35
2023-03-19T10:01:51.027Z,14.35
2023-03-19T10:02:50.891Z,14.45
2023-03-19T10:03:50.916Z,14.25
2023-03-19T10:04:50.888Z,14.25
2023-03-19T10:05:50.893Z,14.25
2023-03-19T10:06:50.888Z,14.35
2023-03-19T10:07:50.894Z,14.35
2023-03-19T10:08:50.886Z,14.25
2023-03-19T10:09:50.893Z,14.35
2023-03-19T10:10:50.896Z,14.25
2023-03-19T10:11:50.900Z,14.35
2023-03-19T10:12:50.884Z,14.35
2023-03-19T10:13:50.893Z,14.45
2023-03-19T10:14:50.901Z,14.35
2023-03-19T10:15:50.961Z,14.35
2023-03-19T10:16:50.886Z,14.35
2023-03-19T10:17:50.911Z,14.35
2023-03-19T10:18:51.547Z,14.35
2023-03-19T10:19:50.892Z,14.35
2023-03-19T10:20:50.880Z,14.45
2023-03-19T10:21:50.898Z,14.35
2023-03-19T10:22:50.879Z,14.35
2023-03-19T10:23:50.888Z,14.35
2023-03-19T10:24:50.878Z,14.35
2023-03-19T10:25:50.886Z,14.35
2023-03-19T10:26:50.878Z,14.35
2023-03-19T10:27:50.886Z,14.35
2023-03-19T10:28:50.882Z,14.35
2023-03-19T10:29:50.888Z,14.35
2023-03-19T10:30:50.890Z,14.35
2023-03-19T10:31:50.962Z,14.35
2023-03-19T10:32:50.956Z,14.35
2023-03-19T10:33:50.899Z,14.45
2023-03-19T10:34:50.901Z,14.35
2023-03-19T10:35:50.913Z,14.25
2023-03-19T10:36:50.884Z,14.35
2023-03-19T10:37:50.906Z,14.35
2023-03-19T10:38:50.884Z,14.35
2023-03-19T10:39:50.875Z,14.25
2023-03-19T10:40:50.880Z,14.35
2023-03-19T10:41:50.874Z,14.25
2023-03-19T10:42:50.880Z,14.35
2023-03-19T10:43:50.873Z,14.35
2023-03-19T10:44:50.885Z,14.35
2023-03-19T10:45:50.925Z,14.35
2023-03-19T10:46:50.881Z,14.25
2023-03-19T10:47:50.873Z,14.35
2023-03-19T10:48:50.879Z,14.35
2023-03-19T10:49:50.911Z,14.35
2023-03-19T10:50:50.882Z,14.35
2023-03-19T10:51:50.879Z,14.25
2023-03-19T10:52:50.877Z,14.35
2023-03-19T10:53:50.869Z,14.35
2023-03-19T10:54:50.876Z,14.35
2023-03-19T10:55:50.876Z,14.35
2023-03-19T10:56:50.872Z,14.35
2023-03-19T10:57:50.893Z,14.35
2023-03-19T10:58:50.879Z,14.35
2023-03-19T10:59:50.878Z,14.35
2023-03-19T11:00:50.879Z,14.35
2023-03-19T11:01:50.863Z,14.25
2023-03-19T11:02:50.870Z,14.35
2023-03-19T11:03:50.974Z,14.25
2023-03-19T11:04:50.868Z,14.35
2023-03-19T11:05:50.882Z,14.35
2023-03-19T11:06:50.868Z,14.35
2023-03-19T11:07:50.897Z,14.25
2023-03-19T11:08:50.870Z,14.25
2023-03-19T11:09:50.881Z,14.25
2023-03-19T11:10:50.864Z,14.25
2023-03-19T11:11:51.158Z,14.35
2023-03-19T11:12:50.865Z,14.25
2023-03-19T11:13:50.856Z,14.25
2023-03-19T11:14:50.862Z,14.25
2023-03-19T11:15:50.859Z,14.35
2023-03-19T11:16:50.926Z,14.35
2023-03-19T11:17:50.854Z,14.35
2023-03-19T11:18:50.866Z,14.25
2023-03-19T11:19:50.863Z,14.25
2023-03-19T11:20:50.860Z,14.16
2023-03-19T11:21:50.874Z,14.35
2023-03-19T11:22:50.864Z,14.16
2023-03-19T11:23:50.851Z,14.45
2023-03-19T11:24:50.873Z,14.16
2023-03-19T11:25:50.861Z,14.35
2023-03-19T11:26:50.855Z,14.16
2023-03-19T11:27:50.858Z,14.25
2023-03-19T11:28:50.864Z,14.25
2023-03-19T11:29:50.854Z,14.64
2023-03-19T11:30:50.864Z,14.54
2023-03-19T11:31:50.892Z,14.64
2023-03-19T11:32:50.878Z,14.45
2023-03-19T11:33:50.853Z,14.54
2023-03-19T11:34:52.539Z,14.45
2023-03-19T11:35:50.859Z,14.45
2023-03-19T11:36:50.850Z,14.54
2023-03-19T11:37:50.864Z,14.64
2023-03-19T11:38:50.856Z,14.54
2023-03-19T11:39:50.845Z,14.45
2023-03-19T11:40:50.851Z,14.45
2023-03-19T11:41:50.854Z,14.54
2023-03-19T11:42:50.857Z,14.74
2023-03-19T11:43:50.844Z,14.54
2023-03-19T11:44:50.855Z,14.54
2023-03-19T11:45:50.926Z,14.54
2023-03-19T11:46:50.850Z,14.74
2023-03-19T11:47:50.843Z,14.74
2023-03-19T11:48:50.850Z,14.74
2023-03-19T11:49:50.840Z,14.74
2023-03-19T11:50:50.847Z,14.74
2023-03-19T11:51:50.841Z,14.64
2023-03-19T11:52:50.845Z,14.74
2023-03-19T11:53:50.871Z,14.64
2023-03-19T11:54:50.846Z,14.64
2023-03-19T11:55:50.843Z,14.64
2023-03-19T11:56:50.893Z,14.74
2023-03-19T11:57:50.838Z,14.74
2023-03-19T11:58:50.845Z,14.74
2023-03-19T11:59:50.838Z,14.64
2023-03-19T12:00:50.846Z,14.64
2023-03-19T12:01:50.838Z,14.64
2023-03-19T12:02:50.867Z,14.64
2023-03-19T12:03:50.870Z,14.74
2023-03-19T12:04:50.847Z,14.64
2023-03-19T12:05:50.854Z,14.74
2023-03-19T12:06:50.843Z,14.74
2023-03-19T12:07:50.840Z,14.74
2023-03-19T12:08:50.842Z,14.74
2023-03-19T12:09:50.873Z,14.64
2023-03-19T12:10:50.841Z,14.74
2023-03-19T12:11:50.836Z,14.84
2023-03-19T12:12:50.842Z,14.84
2023-03-19T12:13:50.833Z,14.84
2023-03-19T12:14:50.839Z,14.84
2023-03-19T12:15:50.879Z,14.84
2023-03-19T12:16:50.842Z,14.84
2023-03-19T12:17:50.834Z,14.74
2023-03-19T12:18:50.839Z,14.84
2023-03-19T12:19:50.831Z,14.74
2023-03-19T12:20:50.840Z,14.84
2023-03-19T12:21:50.833Z,14.84
2023-03-19T12:22:50.836Z,14.84
2023-03-19T12:23:50.831Z,14.94
2023-03-19T12:24:50.848Z,14.84
2023-03-19T12:25:50.860Z,14.94
2023-03-19T12:26:50.837Z,15.03
2023-03-19T12:27:50.826Z,14.94
2023-03-19T12:28:50.833Z,15.03
2023-03-19T12:29:50.826Z,15.03
2023-03-19T12:30:50.863Z,15.03
2023-03-19T12:31:50.824Z,15.03
2023-03-19T12:32:50.882Z,15.03
2023-03-19T12:33:50.827Z,14.84
2023-03-19T12:34:50.830Z,15.03
2023-03-19T12:35:50.862Z,14.84
2023-03-19T12:36:50.831Z,15.12
2023-03-19T12:37:50.821Z,15.03
2023-03-19T12:38:50.829Z,14.84
2023-03-19T12:39:50.821Z,15.03
2023-03-19T12:40:50.862Z,15.03
2023-03-19T12:41:50.869Z,14.84
2023-03-19T12:42:50.831Z,14.84
2023-03-19T12:43:50.819Z,15.03
2023-03-19T12:44:50.826Z,14.94
2023-03-19T12:45:50.819Z,14.94
2023-03-19T12:46:50.943Z,15.12
2023-03-19T12:47:50.817Z,14.94
2023-03-19T12:48:50.820Z,14.84
2023-03-19T12:49:50.813Z,14.74
2023-03-19T12:50:50.823Z,14.74
2023-03-19T12:51:50.812Z,14.84
2023-03-19T12:52:50.822Z,14.74